Overview Statistics Trail Chart Weather Telemetry Raw packets
 

This is the latest recevied weather packets stored in our database for station/object ANJALA. If no packets are shown the sender has not sent any weather packets the latest 10 day(s).

<< 4 5 6 7 8 9 10 >>
Time Temp. Humidity Pressure Rain* Wind** Luminosity Snow
1788462281 12.78° C 78% - 0 mm - - -
1788461082 13.33° C 78% - 0 mm - - -
1788459881 13.33° C 78% - 0 mm - - -
1788458681 13.89° C 75% - 0 mm - - -
1788457479 13.89° C 74% - 0 mm - - -
1788456280 14.44° C 71% - 0 mm - - -
1788455079 15° C 70% - 0 mm - - -
1788453669 16.67° C 63% - 0 mm - - -
1788452680 16.11° C 67% - 0 mm - - -
1788451480 16.67° C 64% - 0 mm - - -
1788450069 16.67° C 62% - 0 mm - - -
1788449079 16.67° C 62% - 0 mm - - -
1788447879 17.22° C 61% - 0 mm - - -
1788445478 17.78° C 56% - 0 mm - - -
1788443079 17.78° C 59% - 0 mm - - -
1788440679 17.78° C 62% - 0 mm - - -
1788439479 18.33° C 62% - 0 mm - - -
1788438278 18.33° C 63% - 0 mm - - -
1788435879 17.78° C 55% - 0 mm - - -
1788434679 18.33° C 55% - 0 mm - - -
1788433479 18.33° C 60% - 0 mm - - -
1788432279 18.33° C 56% - 0 mm - - -
1788429878 17.22° C 69% - 0 mm - - -
1788428679 17.78° C 68% - 0 mm - - -
1788427479 16.67° C 73% - 0 mm - - -

* Rain latest hour (hover to see other rain measurements)
** Current wind speed in m/s (hover to see current wind gust speed)